Time;durP1;ratioP1;P1;durP2;ratioP2;P2;SDS_P1;SDS_P2;PMS_P1;PMS_P2;Temp;Humidity;BMP_temperature;BMP_pressure;BME280_temperature;BME280_humidity;BME280_pressure;Samples;Min_cycle;Max_cycle;Signal;HPM_P1;HPM_P2
2021/09/28 00:02:00;;;;;;;3.40;3.30;;;15.80;62.40;;;;;;5031061;28;20052;-84
2021/09/28 00:04:26;;;;;;;3.20;3.10;;;15.80;62.50;;;;;;5032546;28;20048;-84
2021/09/28 00:06:53;;;;;;;3.20;3.10;;;15.70;62.50;;;;;;5032209;28;20029;-84
2021/09/28 00:09:19;;;;;;;3.13;3.03;;;15.70;62.60;;;;;;5030791;28;20048;-83
2021/09/28 00:11:49;;;;;;;3.10;3.00;;;15.70;62.70;;;;;;5031087;28;20025;-84
2021/09/28 00:14:17;;;;;;;3.65;3.45;;;15.70;62.80;;;;;;5032419;28;20476;-83
2021/09/28 00:16:44;;;;;;;3.10;3.00;;;15.60;62.80;;;;;;5031451;28;20033;-83
2021/09/28 00:19:10;;;;;;;3.20;3.10;;;15.60;62.90;;;;;;5021684;28;20037;-83
2021/09/28 00:21:36;;;;;;;5.15;3.28;;;15.60;63.00;;;;;;5014357;28;20468;-83
2021/09/28 00:24:02;;;;;;;3.47;3.17;;;15.50;63.00;;;;;;5031698;28;20048;-83
2021/09/28 00:26:28;;;;;;;3.08;2.97;;;15.50;63.10;;;;;;5030631;28;20503;-84
2021/09/28 00:28:54;;;;;;;2.90;2.80;;;15.50;63.20;;;;;;5032041;28;20037;-83
2021/09/28 00:31:20;;;;;;;5.22;3.38;;;15.50;63.20;;;;;;5030772;28;20029;-84
2021/09/28 00:33:46;;;;;;;3.15;2.95;;;15.40;63.20;;;;;;5014986;28;20407;-84
2021/09/28 00:36:13;;;;;;;3.05;2.95;;;15.40;63.20;;;;;;5032119;28;20029;-84
2021/09/28 00:38:39;;;;;;;3.38;3.17;;;15.40;63.30;;;;;;5031322;28;20033;-84
2021/09/28 00:41:05;;;;;;;2.83;2.72;;;15.40;63.30;;;;;;5010885;28;20044;-83
2021/09/28 00:43:44;;;;;;;2.80;2.70;;;15.40;63.30;;;;;;5029235;28;20041;-84
2021/09/28 00:46:11;;;;;;;2.90;2.80;;;15.40;63.40;;;;;;5018682;28;20045;-83
2021/09/28 00:48:37;;;;;;;2.97;2.88;;;15.40;63.40;;;;;;5028511;28;20070;-83
2021/09/28 00:51:03;;;;;;;2.95;2.85;;;15.30;63.40;;;;;;5030969;28;20037;-84
2021/09/28 00:53:31;;;;;;;3.40;3.20;;;15.40;63.50;;;;;;5031687;28;20044;-84
2021/09/28 00:55:57;;;;;;;8.52;3.17;;;15.30;63.40;;;;;;5029447;28;20029;-84
2021/09/28 00:58:23;;;;;;;2.85;2.75;;;15.30;63.50;;;;;;5030245;28;20056;-84
2021/09/28 01:00:51;;;;;;;6.20;3.45;;;15.30;63.60;;;;;;4997594;28;20044;-84
2021/09/28 01:03:18;;;;;;;6.40;3.35;;;15.20;63.60;;;;;;5031667;28;20043;-83
2021/09/28 01:05:44;;;;;;;2.78;2.67;;;15.20;63.70;;;;;;5030672;28;20044;-83
2021/09/28 01:08:10;;;;;;;3.03;2.92;;;15.20;63.70;;;;;;5013504;28;20045;-83
2021/09/28 01:10:36;;;;;;;2.72;2.63;;;15.20;63.80;;;;;;5031627;28;20030;-83
2021/09/28 01:13:02;;;;;;;2.90;2.80;;;15.20;63.80;;;;;;5029686;28;20033;-83
2021/09/28 01:15:28;;;;;;;3.00;2.90;;;15.20;63.80;;;;;;5031217;28;20057;-83
2021/09/28 01:17:54;;;;;;;2.70;2.60;;;15.10;63.80;;;;;;5030483;28;20036;-83
2021/09/28 01:20:21;;;;;;;2.95;2.85;;;15.10;63.90;;;;;;5029251;28;20026;-84
2021/09/28 01:22:47;;;;;;;2.63;2.53;;;15.10;64.00;;;;;;5031486;28;20033;-83
2021/09/28 01:25:13;;;;;;;3.10;3.00;;;15.10;64.00;;;;;;5029791;28;20025;-83
2021/09/28 01:27:39;;;;;;;4.18;3.83;;;15.00;64.00;;;;;;5030237;28;20033;-83
2021/09/28 01:30:06;;;;;;;2.80;2.70;;;15.00;64.10;;;;;;5027318;28;20514;-83
2021/09/28 01:32:33;;;;;;;9.27;3.30;;;15.00;64.20;;;;;;5031293;28;20460;-83
2021/09/28 01:35:00;;;;;;;2.70;2.60;;;15.00;64.20;;;;;;5011735;28;20064;-83
2021/09/28 01:37:26;;;;;;;2.60;2.50;;;15.00;64.20;;;;;;5030181;28;20041;-83
2021/09/28 01:39:53;;;;;;;2.78;2.67;;;15.00;64.30;;;;;;5031147;28;20036;-84
2021/09/28 01:42:19;;;;;;;7.85;3.05;;;14.90;64.30;;;;;;5027877;28;20057;-83
2021/09/28 01:44:45;;;;;;;2.80;2.70;;;14.90;64.30;;;;;;5029088;28;20044;-83
2021/09/28 01:47:11;;;;;;;3.40;3.20;;;14.90;64.30;;;;;;5030531;28;20038;-83
2021/09/28 01:49:37;;;;;;;3.17;2.88;;;14.90;64.40;;;;;;5030370;28;20034;-83
2021/09/28 01:52:03;;;;;;;2.70;2.60;;;14.90;64.50;;;;;;5013182;28;20037;-83
2021/09/28 01:54:29;;;;;;;2.70;2.60;;;14.90;64.50;;;;;;5029844;28;20037;-83
2021/09/28 01:56:56;;;;;;;2.63;2.53;;;14.80;64.50;;;;;;5029828;28;20032;-83
2021/09/28 01:59:22;;;;;;;2.60;2.50;;;14.80;64.60;;;;;;5030827;28;20049;-83
2021/09/28 02:01:48;;;;;;;3.20;3.00;;;14.80;64.60;;;;;;5027418;28;20484;-83
2021/09/28 02:04:14;;;;;;;2.90;2.70;;;14.80;64.70;;;;;;5022088;28;20041;-84
2021/09/28 02:06:40;;;;;;;3.00;2.80;;;14.80;64.70;;;;;;5019702;28;20469;-83
2021/09/28 02:09:08;;;;;;;2.70;2.60;;;14.80;64.70;;;;;;5028689;28;20460;-83
2021/09/28 02:11:35;;;;;;;2.67;2.58;;;14.80;64.80;;;;;;5026280;28;20372;-83
2021/09/28 02:14:01;;;;;;;2.70;2.60;;;14.70;64.80;;;;;;5028717;28;20021;-84
2021/09/28 02:16:28;;;;;;;2.80;2.70;;;14.70;64.80;;;;;;5025686;28;20030;-83
2021/09/28 02:18:54;;;;;;;2.67;2.58;;;14.70;64.90;;;;;;5027125;28;20038;-84
2021/09/28 02:21:20;;;;;;;2.65;2.55;;;14.70;65.00;;;;;;5044167;28;20044;-84
2021/09/28 02:23:46;;;;;;;2.60;2.50;;;14.60;65.00;;;;;;5029104;28;20037;-84
2021/09/28 02:26:12;;;;;;;2.60;2.50;;;14.60;65.00;;;;;;5028311;28;20037;-84
2021/09/28 02:28:38;;;;;;;2.70;2.60;;;14.60;65.10;;;;;;5026667;28;20431;-84
2021/09/28 02:31:04;;;;;;;2.75;2.65;;;14.60;65.10;;;;;;5028573;28;20026;-83
2021/09/28 02:33:30;;;;;;;3.20;3.10;;;14.50;65.10;;;;;;5027332;28;20049;-84
2021/09/28 02:35:56;;;;;;;3.17;3.05;;;14.50;65.20;;;;;;5033281;28;20507;-83
2021/09/28 02:38:22;;;;;;;3.08;2.97;;;14.60;65.20;;;;;;5033482;28;20030;-83
2021/09/28 02:40:48;;;;;;;2.60;2.50;;;14.60;65.20;;;;;;5032309;28;20492;-83
2021/09/28 02:43:15;;;;;;;2.75;2.65;;;14.50;65.10;;;;;;5032649;28;20399;-84
2021/09/28 02:45:42;;;;;;;2.72;2.63;;;14.50;65.20;;;;;;5032917;28;20040;-84
2021/09/28 02:48:08;;;;;;;2.70;2.60;;;14.50;65.30;;;;;;5033206;28;20042;-84
2021/09/28 02:50:35;;;;;;;2.60;2.50;;;14.50;65.30;;;;;;5034112;28;20036;-84
2021/09/28 02:53:02;;;;;;;2.97;2.88;;;14.50;65.30;;;;;;5016477;28;20049;-83
2021/09/28 02:55:28;;;;;;;2.80;2.70;;;14.50;65.40;;;;;;5027640;28;20021;-83
2021/09/28 02:57:54;;;;;;;2.97;2.88;;;14.40;65.40;;;;;;5033501;28;20033;-83
2021/09/28 03:00:21;;;;;;;2.90;2.80;;;14.40;65.40;;;;;;5031820;28;20046;-83
2021/09/28 03:02:47;;;;;;;2.70;2.60;;;14.40;65.50;;;;;;5032449;28;20156;-83
2021/09/28 03:05:13;;;;;;;2.80;2.70;;;14.40;65.50;;;;;;5029806;28;20542;-83
2021/09/28 03:07:39;;;;;;;2.90;2.80;;;14.40;65.50;;;;;;5032619;28;20029;-83
2021/09/28 03:10:06;;;;;;;3.00;2.90;;;14.40;65.60;;;;;;5033319;28;20034;-84
2021/09/28 03:12:32;;;;;;;2.80;2.70;;;14.40;65.50;;;;;;5018200;28;20037;-83
2021/09/28 03:14:58;;;;;;;2.78;2.67;;;14.40;65.60;;;;;;5033522;28;20037;-84
2021/09/28 03:17:25;;;;;;;2.95;2.85;;;14.40;65.60;;;;;;5015452;28;20037;-83
2021/09/28 03:19:52;;;;;;;2.75;2.65;;;14.40;65.70;;;;;;5033641;28;20029;-83
2021/09/28 03:22:18;;;;;;;2.95;2.85;;;14.40;65.70;;;;;;5032308;28;20361;-84
2021/09/28 03:24:44;;;;;;;3.80;3.13;;;14.40;65.70;;;;;;5032814;28;20040;-83
2021/09/28 03:27:10;;;;;;;3.10;3.00;;;14.30;65.70;;;;;;5033286;28;20026;-83
2021/09/28 03:29:36;;;;;;;2.80;2.70;;;14.40;65.80;;;;;;5032745;28;20034;-82
2021/09/28 03:32:03;;;;;;;2.80;2.70;;;14.40;65.90;;;;;;5014499;28;20045;-82
2021/09/28 03:34:29;;;;;;;2.70;2.60;;;14.30;65.80;;;;;;5032797;28;20506;-82
2021/09/28 03:36:55;;;;;;;2.60;2.50;;;14.30;65.80;;;;;;5033290;28;20030;-82
2021/09/28 03:39:21;;;;;;;2.97;2.88;;;14.40;65.90;;;;;;5029231;28;20026;-82
2021/09/28 03:41:48;;;;;;;3.17;2.75;;;14.30;65.90;;;;;;5032865;28;20036;-82
2021/09/28 03:44:14;;;;;;;2.60;2.50;;;14.30;66.00;;;;;;5031428;28;20507;-82
2021/09/28 03:46:41;;;;;;;2.67;2.58;;;14.30;66.00;;;;;;5032329;28;20041;-82
2021/09/28 03:49:07;;;;;;;2.70;2.60;;;14.30;66.10;;;;;;5032242;28;20044;-82
2021/09/28 03:51:33;;;;;;;2.70;2.60;;;14.30;66.20;;;;;;5027845;28;20025;-82
2021/09/28 03:53:59;;;;;;;2.60;2.50;;;14.20;66.10;;;;;;5032315;28;20053;-82
2021/09/28 03:56:25;;;;;;;2.70;2.60;;;14.20;66.10;;;;;;5030650;28;20268;-82
2021/09/28 03:58:51;;;;;;;2.90;2.80;;;14.20;66.20;;;;;;5032073;28;20413;-82
2021/09/28 04:01:19;;;;;;;3.10;2.65;;;14.10;66.30;;;;;;5031202;28;20041;-82
2021/09/28 04:03:45;;;;;;;2.60;2.50;;;14.10;66.30;;;;;;5031403;28;20510;-82
2021/09/28 04:06:11;;;;;;;2.90;2.80;;;14.10;66.40;;;;;;5032701;28;20032;-82
2021/09/28 04:08:37;;;;;;;2.80;2.70;;;14.10;66.50;;;;;;5032591;28;20033;-81
2021/09/28 04:11:03;;;;;;;2.72;2.63;;;14.10;66.50;;;;;;5032264;28;20033;-82
2021/09/28 04:13:29;;;;;;;2.70;2.58;;;14.10;66.50;;;;;;5031400;28;20057;-82
2021/09/28 04:15:56;;;;;;;2.70;2.60;;;14.10;66.60;;;;;;5013884;28;20033;-82
2021/09/28 04:18:22;;;;;;;7.32;3.30;;;14.00;66.60;;;;;;5032140;28;20064;-82
2021/09/28 04:20:49;;;;;;;2.70;2.60;;;14.00;66.70;;;;;;5032603;28;20036;-81
2021/09/28 04:23:15;;;;;;;2.70;2.60;;;14.00;66.70;;;;;;5031417;28;20025;-79
2021/09/28 04:25:41;;;;;;;2.58;2.47;;;14.00;66.70;;;;;;5029079;28;20041;-79
2021/09/28 04:28:08;;;;;;;2.65;2.55;;;14.00;66.80;;;;;;5030437;28;20030;-80
2021/09/28 04:30:34;;;;;;;2.58;2.47;;;14.00;66.80;;;;;;5062705;28;20037;-79
2021/09/28 04:33:00;;;;;;;2.83;2.67;;;14.00;66.80;;;;;;5021307;28;20392;-79
2021/09/28 04:35:28;;;;;;;2.67;2.58;;;14.00;66.80;;;;;;5030448;28;20037;-79
2021/09/28 04:37:54;;;;;;;2.95;2.75;;;14.00;66.80;;;;;;5029921;28;20045;-79
2021/09/28 04:40:20;;;;;;;2.60;2.50;;;14.00;66.90;;;;;;5028715;28;20026;-79
2021/09/28 04:42:46;;;;;;;2.75;2.65;;;14.00;66.90;;;;;;5030191;28;20029;-79
2021/09/28 04:45:13;;;;;;;2.70;2.60;;;14.00;66.90;;;;;;5030249;28;20060;-79
2021/09/28 04:47:39;;;;;;;2.60;2.50;;;14.00;67.00;;;;;;5026364;28;20030;-80
2021/09/28 04:50:05;;;;;;;2.50;2.40;;;13.90;67.00;;;;;;5028146;28;20037;-80
2021/09/28 04:52:32;;;;;;;3.13;2.92;;;13.90;67.00;;;;;;5030022;28;20040;-82
2021/09/28 04:54:58;;;;;;;2.75;2.65;;;13.90;67.00;;;;;;5030662;28;20411;-80
2021/09/28 04:57:24;;;;;;;2.70;2.60;;;13.80;67.00;;;;;;5030974;28;20041;-82
2021/09/28 04:59:50;;;;;;;2.83;2.72;;;13.80;67.10;;;;;;5030651;28;20060;-79
2021/09/28 05:02:16;;;;;;;2.60;2.50;;;13.70;67.20;;;;;;5030071;28;20125;-80
2021/09/28 05:04:42;;;;;;;2.60;2.50;;;13.70;67.40;;;;;;5029772;28;20503;-79
2021/09/28 05:07:08;;;;;;;2.90;2.80;;;13.50;67.50;;;;;;5030354;28;20036;-82
2021/09/28 05:09:37;;;;;;;2.75;2.65;;;13.40;67.60;;;;;;5030921;28;20033;-82
2021/09/28 05:12:05;;;;;;;2.80;2.70;;;13.40;67.80;;;;;;5027920;28;20357;-79
2021/09/28 05:14:31;;;;;;;2.70;2.60;;;13.40;67.80;;;;;;5029759;28;20033;-79
2021/09/28 05:16:58;;;;;;;4.50;2.80;;;13.40;67.90;;;;;;5028796;28;20048;-79
2021/09/28 05:19:24;;;;;;;2.80;2.70;;;13.40;67.80;;;;;;5062128;28;20023;-79
2021/09/28 05:21:50;;;;;;;2.65;2.55;;;13.40;67.80;;;;;;5030266;28;20044;-79
2021/09/28 05:24:16;;;;;;;2.65;2.55;;;13.30;67.90;;;;;;5031441;28;20038;-79
2021/09/28 05:26:42;;;;;;;2.50;2.40;;;13.30;68.10;;;;;;5031403;28;20032;-79
2021/09/28 05:29:08;;;;;;;2.30;2.20;;;13.30;68.00;;;;;;5031246;28;20033;-79
2021/09/28 05:31:35;;;;;;;2.58;2.47;;;13.30;68.00;;;;;;5029176;28;20040;-79
2021/09/28 05:34:01;;;;;;;2.50;2.40;;;13.30;68.00;;;;;;5029467;28;20030;-79
2021/09/28 05:36:27;;;;;;;2.63;2.53;;;13.40;68.00;;;;;;5030003;28;20034;-79
2021/09/28 05:38:53;;;;;;;2.50;2.40;;;13.40;67.90;;;;;;5027563;28;20036;-79
2021/09/28 05:41:19;;;;;;;2.58;2.47;;;13.40;67.90;;;;;;5025522;28;20042;-79
2021/09/28 05:43:45;;;;;;;2.40;2.30;;;13.40;67.90;;;;;;5030079;28;20087;-82
2021/09/28 05:46:11;;;;;;;2.40;2.30;;;13.40;67.90;;;;;;5029639;28;20411;-82
2021/09/28 05:48:37;;;;;;;2.58;2.47;;;13.40;68.00;;;;;;5028474;28;20041;-80
2021/09/28 05:51:17;;;;;;;2.60;2.50;;;13.40;68.00;;;;;;5030215;28;20036;-79
2021/09/28 05:53:45;;;;;;;2.75;2.63;;;13.30;68.00;;;;;;5031634;28;20037;-79
2021/09/28 05:56:14;;;;;;;2.45;2.35;;;13.30;68.10;;;;;;5060778;28;20033;-79
2021/09/28 05:58:41;;;;;;;2.60;2.50;;;13.30;68.00;;;;;;5031045;28;20052;-79
2021/09/28 06:01:07;;;;;;;2.50;2.40;;;13.30;68.10;;;;;;5060470;28;20380;-79
2021/09/28 06:03:33;;;;;;;2.58;2.47;;;13.30;68.00;;;;;;5029646;28;20048;-79
2021/09/28 06:06:02;;;;;;;2.60;2.50;;;13.30;68.10;;;;;;5030241;28;20037;-79
2021/09/28 06:08:28;;;;;;;2.45;2.35;;;13.30;68.10;;;;;;5031512;28;20037;-79
2021/09/28 06:10:55;;;;;;;2.40;2.30;;;13.30;68.20;;;;;;5016419;28;20044;-79
2021/09/28 06:13:21;;;;;;;2.50;2.40;;;13.30;68.30;;;;;;5021365;28;20026;-79
2021/09/28 06:15:47;;;;;;;2.50;2.40;;;13.30;68.30;;;;;;5025920;28;20030;-82
2021/09/28 06:18:13;;;;;;;2.60;2.50;;;13.30;68.40;;;;;;5029456;28;20060;-83
2021/09/28 06:20:39;;;;;;;2.95;2.83;;;13.30;68.40;;;;;;5031659;28;20042;-81
2021/09/28 06:23:05;;;;;;;2.67;2.58;;;13.30;68.40;;;;;;5032257;28;20037;-80
2021/09/28 06:25:31;;;;;;;2.80;2.60;;;13.30;68.40;;;;;;5034292;28;20037;-82
2021/09/28 06:27:57;;;;;;;2.60;2.50;;;13.30;68.40;;;;;;5065785;28;20025;-81
2021/09/28 06:30:23;;;;;;;2.60;2.50;;;13.30;68.40;;;;;;5033091;28;20025;-80
2021/09/28 06:32:49;;;;;;;8.35;3.00;;;13.30;68.40;;;;;;5032918;28;20036;-80
2021/09/28 06:35:17;;;;;;;2.92;2.83;;;13.30;68.40;;;;;;5031605;28;20036;-85
2021/09/28 06:37:43;;;;;;;2.55;2.45;;;13.30;68.50;;;;;;5060351;28;20033;-84
2021/09/28 06:40:09;;;;;;;2.45;2.35;;;13.30;68.50;;;;;;5020452;28;20053;-83
2021/09/28 06:42:36;;;;;;;2.50;2.40;;;13.30;68.60;;;;;;5031892;28;20056;-85
2021/09/28 06:45:02;;;;;;;2.50;2.40;;;13.30;68.60;;;;;;5065981;28;20045;-82
2021/09/28 06:47:28;;;;;;;2.47;2.38;;;13.30;68.60;;;;;;5017773;28;20038;-82
2021/09/28 06:49:54;;;;;;;2.45;2.35;;;13.30;68.70;;;;;;5027982;28;20045;-83
2021/09/28 06:52:20;;;;;;;2.63;2.53;;;13.40;68.60;;;;;;5031087;28;20033;-83
2021/09/28 06:54:46;;;;;;;3.05;2.85;;;13.40;68.60;;;;;;5044800;28;20395;-81
2021/09/28 06:57:12;;;;;;;2.60;2.50;;;13.40;68.40;;;;;;5033748;28;20026;-79
2021/09/28 06:59:39;;;;;;;3.35;3.22;;;13.50;68.40;;;;;;5034190;28;20589;-81
2021/09/28 07:02:05;;;;;;;3.25;3.05;;;13.60;68.30;;;;;;5035447;28;20479;-82
2021/09/28 07:04:31;;;;;;;2.65;2.55;;;13.70;68.90;;;;;;5039907;28;20033;-78
2021/09/28 07:06:57;;;;;;;2.60;2.50;;;13.70;68.00;;;;;;5033554;28;20025;-81
2021/09/28 07:09:23;;;;;;;2.60;2.50;;;13.80;67.80;;;;;;5033265;28;20041;-87
2021/09/28 07:11:49;;;;;;;2.60;2.50;;;13.90;67.80;;;;;;5016745;28;20033;-86
2021/09/28 07:14:15;;;;;;;2.60;2.50;;;13.90;67.80;;;;;;5033847;28;20041;-84
2021/09/28 07:16:42;;;;;;;3.22;3.10;;;14.00;67.90;;;;;;5032139;28;20056;-85
2021/09/28 07:19:09;;;;;;;2.60;2.50;;;14.00;67.80;;;;;;5033627;28;20038;-85
2021/09/28 07:21:35;;;;;;;4.78;3.05;;;14.00;67.80;;;;;;5064987;28;20387;-85
2021/09/28 07:24:01;;;;;;;2.95;2.85;;;14.10;67.90;;;;;;5045264;28;20041;-85
2021/09/28 07:26:27;;;;;;;2.88;2.72;;;14.10;67.90;;;;;;5033391;28;20484;-86
2021/09/28 07:28:53;;;;;;;3.33;3.13;;;14.20;68.60;;;;;;5065637;28;20033;-83
2021/09/28 07:31:19;;;;;;;2.72;2.63;;;14.30;67.90;;;;;;5032600;28;20037;-84
2021/09/28 07:33:45;;;;;;;2.97;2.88;;;14.30;67.80;;;;;;5033618;28;20392;-83
2021/09/28 07:36:11;;;;;;;2.95;2.85;;;14.40;67.70;;;;;;5063712;28;20038;-82
2021/09/28 07:38:40;;;;;;;2.83;2.72;;;14.40;67.60;;;;;;5032303;28;20029;-87
2021/09/28 07:41:06;;;;;;;2.85;2.75;;;14.50;67.40;;;;;;5032803;28;20057;-84
2021/09/28 07:43:32;;;;;;;3.00;2.90;;;14.60;67.40;;;;;;5065014;28;20479;-84
2021/09/28 07:46:00;;;;;;;2.80;2.70;;;14.70;67.40;;;;;;5066440;28;20381;-84
2021/09/28 07:48:27;;;;;;;3.10;3.00;;;14.70;67.30;;;;;;5041726;28;20041;-84
2021/09/28 07:50:53;;;;;;;3.00;2.90;;;14.80;67.30;;;;;;5032050;28;20472;-84
2021/09/28 07:53:19;;;;;;;3.00;2.90;;;14.80;67.30;;;;;;5032861;28;20038;-84
2021/09/28 07:55:45;;;;;;;3.35;3.15;;;14.90;67.30;;;;;;5064116;28;20034;-83
2021/09/28 07:58:11;;;;;;;3.70;3.40;;;15.00;67.30;;;;;;5037672;28;20094;-86
2021/09/28 08:00:39;;;;;;;3.08;2.97;;;15.00;67.20;;;;;;5032410;28;20500;-90
2021/09/28 08:03:07;;;;;;;3.72;3.53;;;15.20;67.20;;;;;;5030213;28;20071;-83
2021/09/28 08:05:33;;;;;;;3.20;3.10;;;15.20;67.10;;;;;;5026918;28;20041;-84
2021/09/28 08:07:59;;;;;;;3.50;3.25;;;15.30;67.00;;;;;;5012930;28;20026;-86
2021/09/28 08:10:25;;;;;;;2.92;2.83;;;15.30;66.90;;;;;;5029943;28;20056;-86
2021/09/28 08:12:51;;;;;;;4.38;4.07;;;15.40;66.90;;;;;;5030683;28;20041;-84
2021/09/28 08:15:17;;;;;;;3.17;3.08;;;15.50;66.90;;;;;;5031666;28;20051;-87
2021/09/28 08:17:43;;;;;;;4.28;3.90;;;15.60;67.00;;;;;;5033378;28;20025;-87
2021/09/28 08:20:10;;;;;;;3.72;3.53;;;15.70;66.90;;;;;;5013971;28;20045;-80
2021/09/28 08:22:38;;;;;;;3.58;3.40;;;15.70;66.90;;;;;;5031967;28;20034;-82
2021/09/28 08:25:10;;;;;;;3.10;3.00;;;15.80;66.90;;;;;;5031999;28;20029;-81
2021/09/28 08:30:21;;;;;;;4.00;3.80;;;15.90;66.80;;;;;;5034480;28;20490;-81
2021/09/28 08:32:47;;;;;;;5.97;4.35;;;15.90;66.80;;;;;;5031744;28;20419;-83
2021/09/28 08:35:14;;;;;;;4.00;3.70;;;16.00;66.80;;;;;;5031200;28;20049;-78
2021/09/28 08:37:40;;;;;;;3.63;3.42;;;16.10;66.80;;;;;;5030991;28;20025;-81
2021/09/28 08:40:06;;;;;;;3.25;3.15;;;16.20;66.80;;;;;;5030390;28;20045;-77
2021/09/28 08:42:32;;;;;;;4.25;3.95;;;16.30;66.70;;;;;;5031544;28;20033;-80
2021/09/28 08:44:58;;;;;;;4.95;4.65;;;16.30;66.60;;;;;;5021496;28;20049;-79
2021/09/28 08:47:40;;;;;;;4.40;4.00;;;16.50;66.60;;;;;;5035202;28;20029;-79
2021/09/28 08:50:12;;;;;;;3.65;3.50;;;16.60;66.40;;;;;;5063609;28;20025;-80
2021/09/28 08:52:40;;;;;;;3.92;3.63;;;16.90;66.20;;;;;;5061741;28;20030;-78
2021/09/28 08:55:06;;;;;;;6.65;3.55;;;17.00;66.00;;;;;;5044964;28;20045;-77
2021/09/28 08:57:32;;;;;;;3.95;3.75;;;17.20;65.90;;;;;;5063437;28;20026;-77
2021/09/28 08:59:59;;;;;;;3.70;3.50;;;17.30;65.80;;;;;;5030500;28;20511;-78
2021/09/28 09:02:42;;;;;;;3.60;3.40;;;17.40;65.60;;;;;;5030725;28;20052;-79
2021/09/28 09:05:13;;;;;;;4.10;3.90;;;17.60;65.50;;;;;;5062819;28;20038;-79
2021/09/28 09:07:39;;;;;;;;;;;17.70;65.40;;;;;;5030214;28;20037;-82
2021/09/28 09:10:06;;;;;;;3.85;3.65;;;17.80;65.30;;;;;;5030230;28;19909;-79
2021/09/28 09:12:33;;;;;;;4.10;3.80;;;17.90;65.20;;;;;;5058518;28;20479;-82
2021/09/28 09:15:23;;;;;;;3.85;3.65;;;18.00;65.10;;;;;;4999339;28;20038;-81
2021/09/28 09:17:51;;;;;;;3.80;3.60;;;18.10;65.10;;;;;;5017411;28;20041;-83
2021/09/28 09:20:41;;;;;;;4.20;4.00;;;18.30;64.90;;;;;;5029327;28;20399;-83
2021/09/28 09:23:14;;;;;;;4.00;3.80;;;18.50;64.80;;;;;;5023411;28;20053;-80
2021/09/28 09:25:40;;;;;;;4.07;3.88;;;18.70;64.50;;;;;;5030080;28;20782;-80
2021/09/28 09:28:20;;;;;;;4.68;4.47;;;18.90;64.20;;;;;;5030203;28;20487;-81
2021/09/28 09:30:46;;;;;;;4.07;3.88;;;19.10;64.00;;;;;;5048746;28;20399;-81
2021/09/28 09:33:12;;;;;;;4.20;4.00;;;19.20;63.70;;;;;;5013456;28;20042;-84
2021/09/28 09:35:39;;;;;;;9.63;5.97;;;19.30;63.60;;;;;;5030536;28;20388;-83
2021/09/28 09:38:09;;;;;;;8.70;6.30;;;19.40;63.50;;;;;;5031133;28;20026;-84
2021/09/28 09:40:40;;;;;;;6.10;5.18;;;19.40;63.50;;;;;;5013277;28;20095;-84
2021/09/28 09:43:07;;;;;;;4.65;4.40;;;19.50;63.50;;;;;;5015896;28;20029;-87
2021/09/28 09:45:33;;;;;;;4.60;4.40;;;19.60;63.40;;;;;;5017400;28;20042;-86
2021/09/28 09:47:59;;;;;;;4.93;4.72;;;19.60;63.40;;;;;;5032121;28;20029;-83
2021/09/28 09:50:26;;;;;;;15.93;4.60;;;19.60;63.40;;;;;;5066505;28;20052;-83
2021/09/28 09:52:59;;;;;;;5.45;4.55;;;19.70;63.50;;;;;;5035138;28;20033;-85
2021/09/28 09:55:31;;;;;;;5.07;4.88;;;19.70;63.50;;;;;;5034683;28;20026;-87
2021/09/28 09:57:57;;;;;;;5.10;4.90;;;19.80;63.30;;;;;;5031278;28;20033;-83
2021/09/28 10:00:23;;;;;;;4.85;4.65;;;19.90;63.10;;;;;;5031075;28;20401;-84
2021/09/28 10:02:49;;;;;;;5.03;4.82;;;20.00;63.00;;;;;;5032386;28;20050;-90
2021/09/28 10:05:16;;;;;;;5.15;4.95;;;20.10;62.80;;;;;;5016062;28;20041;-89
2021/09/28 10:07:42;;;;;;;5.55;5.25;;;20.20;62.70;;;;;;5016217;28;20034;-86
2021/09/28 10:10:09;;;;;;;5.07;4.88;;;20.20;62.60;;;;;;5034487;28;20058;-86
2021/09/28 10:12:38;;;;;;;5.10;4.80;;;20.20;62.70;;;;;;5015000;28;20030;-82
2021/09/28 10:15:06;;;;;;;4.80;4.60;;;20.20;62.70;;;;;;5049294;28;20400;-84
2021/09/28 10:17:38;;;;;;;5.43;5.15;;;20.10;62.70;;;;;;5032679;28;20033;-84
2021/09/28 10:20:06;;;;;;;4.90;4.70;;;20.10;63.50;;;;;;5034160;28;20025;-82
2021/09/28 10:22:54;;;;;;;5.30;5.10;;;20.10;62.70;;;;;;5030764;28;20022;-84
2021/09/28 10:25:22;;;;;;;4.75;4.55;;;20.20;62.70;;;;;;5031189;28;20037;-83
2021/09/28 10:28:17;;;;;;;4.82;4.63;;;20.20;62.60;;;;;;5066416;28;20045;-83
2021/09/28 10:30:45;;;;;;;5.40;5.10;;;20.30;62.40;;;;;;5019135;28;20033;-82
2021/09/28 10:33:11;;;;;;;5.45;5.15;;;20.40;62.30;;;;;;4999186;28;20029;-83
2021/09/28 10:35:51;;;;;;;5.05;4.85;;;20.50;62.10;;;;;;5033276;28;20040;-83
2021/09/28 10:38:18;;;;;;;4.88;4.68;;;20.60;61.80;;;;;;5032698;28;20025;-83
2021/09/28 10:40:45;;;;;;;5.38;5.07;;;20.70;61.60;;;;;;5033228;28;20029;-82
2021/09/28 10:43:28;;;;;;;5.63;5.28;;;20.80;61.50;;;;;;5030455;28;20032;-82
2021/09/28 10:45:54;;;;;;;4.93;4.70;;;20.80;61.20;;;;;;5032143;28;20068;-81
2021/09/28 10:48:23;;;;;;;4.90;4.68;;;20.80;61.30;;;;;;5032351;28;20034;-82
2021/09/28 10:51:04;;;;;;;5.25;4.80;;;20.80;61.40;;;;;;5034441;28;20511;-81
2021/09/28 10:53:31;;;;;;;5.00;4.70;;;20.80;61.40;;;;;;5047448;28;20038;-80
2021/09/28 10:55:57;;;;;;;4.88;4.68;;;20.80;61.30;;;;;;5064543;28;20068;-80
2021/09/28 10:58:24;;;;;;;4.80;4.60;;;20.80;61.20;;;;;;5034892;28;20040;-82
2021/09/28 11:00:53;;;;;;;4.72;4.53;;;20.80;61.10;;;;;;5031900;28;20048;-82
2021/09/28 11:03:44;;;;;;;4.55;4.35;;;20.90;61.10;;;;;;5032623;28;20461;-82
2021/09/28 11:06:11;;;;;;;4.72;4.53;;;20.90;60.90;;;;;;5033666;28;20045;-83
2021/09/28 11:08:37;;;;;;;4.70;4.50;;;20.90;60.90;;;;;;5031860;28;20476;-82
2021/09/28 11:11:08;;;;;;;4.85;4.65;;;21.00;60.80;;;;;;5012962;28;20049;-79
2021/09/28 11:13:41;;;;;;;4.85;4.65;;;21.00;60.60;;;;;;5015665;28;20021;-76
2021/09/28 11:16:11;;;;;;;4.53;4.32;;;21.00;60.60;;;;;;5064266;28;20044;-80
2021/09/28 11:18:54;;;;;;;4.65;4.45;;;21.00;60.60;;;;;;5033173;28;20025;-78
2021/09/28 11:21:20;;;;;;;4.80;4.60;;;20.90;60.50;;;;;;5033352;28;20507;-78
2021/09/28 11:23:49;;;;;;;4.60;4.40;;;20.90;60.50;;;;;;5028779;28;20467;-77
2021/09/28 11:26:16;;;;;;;4.70;4.50;;;20.90;60.50;;;;;;5033257;28;20045;-78
2021/09/28 11:28:50;;;;;;;4.65;4.45;;;20.80;60.50;;;;;;5031653;28;20030;-79
2021/09/28 11:31:17;;;;;;;4.70;4.50;;;20.80;60.50;;;;;;5032385;28;20037;-79
2021/09/28 11:33:45;;;;;;;4.50;4.30;;;20.70;60.40;;;;;;5031642;28;20514;-80
2021/09/28 11:36:17;;;;;;;4.68;4.47;;;20.70;60.40;;;;;;5033240;28;20056;-79
2021/09/28 11:38:45;;;;;;;4.30;4.10;;;20.70;60.40;;;;;;5031858;28;20033;-82
2021/09/28 11:41:21;;;;;;;4.47;4.28;;;20.70;60.40;;;;;;5029092;28;20189;-81
2021/09/28 11:43:52;;;;;;;4.55;4.35;;;20.60;60.30;;;;;;5057986;28;20037;-85
2021/09/28 11:46:20;;;;;;;5.00;4.80;;;20.60;60.30;;;;;;5024675;28;20034;-81
2021/09/28 11:48:57;;;;;;;4.35;4.15;;;20.60;60.40;;;;;;5015928;28;20028;-83
2021/09/28 11:51:44;;;;;;;4.20;4.00;;;20.50;60.30;;;;;;5031878;28;20052;-83
2021/09/28 11:54:15;;;;;;;4.55;4.35;;;20.50;61.10;;;;;;5030292;28;20038;-83
2021/09/28 11:56:46;;;;;;;4.93;4.72;;;20.50;60.20;;;;;;5031732;28;20045;-83
2021/09/28 11:59:16;;;;;;;5.15;4.72;;;20.60;60.20;;;;;;5020500;28;20038;-83
2021/09/28 12:01:43;;;;;;;4.63;4.43;;;20.60;60.10;;;;;;5020341;28;20388;-82
2021/09/28 12:04:20;;;;;;;4.47;4.28;;;20.60;60.00;;;;;;5036289;28;20021;-82
2021/09/28 12:07:04;;;;;;;4.50;4.30;;;20.70;59.70;;;;;;5030908;28;20488;-82
2021/09/28 12:09:39;;;;;;;4.43;4.22;;;20.70;59.50;;;;;;5013065;28;20456;-82
2021/09/28 12:12:09;;;;;;;4.40;4.20;;;20.80;59.60;;;;;;5043970;28;20476;-82
2021/09/28 12:14:52;;;;;;;4.40;4.20;;;20.70;59.50;;;;;;5032351;28;20479;-82
2021/09/28 12:17:25;;;;;;;4.05;3.85;;;20.70;59.50;;;;;;5029534;28;20093;-83
2021/09/28 12:19:52;;;;;;;4.38;4.18;;;20.80;59.60;;;;;;5031986;28;20380;-83
2021/09/28 12:22:30;;;;;;;4.70;4.50;;;20.80;59.50;;;;;;5032246;28;20037;-82
2021/09/28 12:24:57;;;;;;;4.30;4.10;;;20.90;59.40;;;;;;5032089;28;20057;-82
2021/09/28 12:27:23;;;;;;;4.70;4.50;;;20.90;59.30;;;;;;5031651;28;20039;-82
2021/09/28 12:29:50;;;;;;;4.70;4.50;;;20.90;59.20;;;;;;5030673;28;20468;-82
2021/09/28 12:32:26;;;;;;;4.57;4.38;;;20.90;59.10;;;;;;5031143;28;20040;-82
2021/09/28 12:34:57;;;;;;;4.32;4.13;;;20.90;59.10;;;;;;5060839;28;20025;-83
2021/09/28 12:37:26;;;;;;;;;;;20.90;59.10;;;;;;5032182;28;20021;-82
2021/09/28 12:40:04;;;;;;;4.35;4.15;;;20.90;59.10;;;;;;5031906;28;19916;-82
2021/09/28 12:42:31;;;;;;;4.50;4.30;;;21.00;59.00;;;;;;5031214;28;20684;-83
2021/09/28 12:45:07;;;;;;;4.60;4.40;;;21.00;58.90;;;;;;5031900;28;20025;-82
2021/09/28 12:47:36;;;;;;;4.70;4.50;;;21.00;58.80;;;;;;5030240;28;20403;-86
2021/09/28 12:50:24;;;;;;;4.40;4.20;;;21.10;58.70;;;;;;4997470;28;20044;-86
2021/09/28 12:53:03;;;;;;;4.85;4.55;;;21.20;58.50;;;;;;5028231;28;20420;-86
2021/09/28 12:55:30;;;;;;;4.90;4.70;;;21.20;58.40;;;;;;5061160;28;20038;-87